Time,TemperatureF,DewpointF,PressureIn,WindDirection,WindDirectionDegrees,WindSpeedMPH,WindSpeedGustMPH,Humidity,HourlyPrecipIn,Conditions,Clouds,dailyrainin,SoftwareType,DateUTC
2013-05-03 00:00:00,46.0,22.0,-100.00,North,-999,-999.0,-999.0,39,-99.99,,,-99.99,,2013-05-03 07:00:00,
2013-05-03 00:52:00,46.0,22.0,-100.00,North,-999,-999.0,-999.0,39,-99.99,,,-99.99,,2013-05-03 07:52:00,
2013-05-03 01:00:00,45.0,22.0,-100.00,SE,134,2.0,4.0,40,-99.99,,,-99.99,,2013-05-03 08:00:00,
2013-05-03 02:00:00,45.0,22.0,-100.00,WSW,253,3.0,5.0,40,-99.99,,,-99.99,,2013-05-03 09:00:00,
2013-05-03 03:00:00,42.0,20.0,-100.00,SW,225,3.0,5.0,40,-99.99,,,0.00,,2013-05-03 10:00:00,
2013-05-03 04:00:00,41.0,21.0,-100.00,SW,222,3.0,5.0,44,-99.99,,,-99.99,,2013-05-03 11:00:00,
2013-05-03 05:00:00,40.0,25.0,-100.00,West,274,3.0,5.0,54,-99.99,,,-99.99,,2013-05-03 12:00:00,
2013-05-03 06:00:00,40.0,28.0,-100.00,West,262,4.0,6.0,61,-99.99,,,0.00,,2013-05-03 13:00:00,
2013-05-03 07:00:00,43.0,29.0,-100.00,NNE,15,4.0,6.0,58,-99.99,,,-99.99,,2013-05-03 14:00:00,
2013-05-03 08:00:00,45.0,29.0,-100.00,West,272,5.0,7.0,54,-99.99,,,-99.99,,2013-05-03 15:00:00,
2013-05-03 09:00:00,46.0,28.0,-100.00,NW,309,5.0,8.0,50,-99.99,,,-99.99,,2013-05-03 16:00:00,
2013-05-03 10:00:00,47.0,28.0,-100.00,WSW,250,5.0,8.0,48,-99.99,,,-99.99,,2013-05-03 17:00:00,
2013-05-03 10:52:00,47.0,28.0,-100.00,WSW,250,5.0,8.0,48,-99.99,,,-99.99,,2013-05-03 17:52:00,
2013-05-03 11:00:00,48.0,29.0,-100.00,WSW,252,5.0,8.0,47,-99.99,,,-99.99,,2013-05-03 18:00:00,
2013-05-03 12:00:00,51.0,30.0,-100.00,WNW,302,4.0,9.0,44,-99.99,,,-99.99,,2013-05-03 19:00:00,
2013-05-03 13:00:00,52.0,26.0,-100.00,WNW,284,4.0,7.0,37,-99.99,,,-99.99,,2013-05-03 20:00:00,
2013-05-03 14:00:00,54.0,21.0,-100.00,SSW,206,3.0,6.0,28,-99.99,,,-99.99,,2013-05-03 21:00:00,
2013-05-03 14:43:00,54.0,21.0,-100.00,SSW,206,3.0,6.0,28,-99.99,,,-99.99,,2013-05-03 21:43:00,
2013-05-03 14:53:00,54.0,21.0,-100.00,SSW,206,3.0,6.0,28,-99.99,,,-99.99,,2013-05-03 21:53:00,
2013-05-03 15:00:00,55.0,19.0,-100.00,NW,311,4.0,6.0,24,-99.99,,,-99.99,,2013-05-03 22:00:00,
2013-05-03 15:42:00,55.0,19.0,-100.00,NW,311,4.0,6.0,24,-99.99,,,-99.99,,2013-05-03 22:42:00,
2013-05-03 15:52:00,55.0,19.0,-100.00,NW,311,4.0,6.0,24,-99.99,,,-99.99,,2013-05-03 22:52:00,
2013-05-03 16:00:00,56.0,18.0,-100.00,WNW,282,4.0,6.0,22,-99.99,,,-99.99,,2013-05-03 23:00:00,
2013-05-03 16:52:00,56.0,18.0,-100.00,WNW,282,4.0,6.0,22,-99.99,,,-99.99,,2013-05-03 23:52:00,
2013-05-03 17:00:00,56.0,22.0,-100.00,NW,314,3.0,5.0,26,-99.99,,,-99.99,,2013-05-04 00:00:00,
2013-05-03 17:42:00,56.0,22.0,-100.00,NW,314,3.0,5.0,26,-99.99,,,-99.99,,2013-05-04 00:42:00,
2013-05-03 17:52:00,56.0,22.0,-100.00,NW,314,3.0,5.0,26,-99.99,,,-99.99,,2013-05-04 00:52:00,
2013-05-03 18:00:00,55.0,24.0,-100.00,NNE,13,2.0,4.0,30,-99.99,,,-99.99,,2013-05-04 01:00:00,
2013-05-03 18:42:00,55.0,24.0,-100.00,NNE,13,2.0,4.0,30,-99.99,,,-99.99,,2013-05-04 01:42:00,
2013-05-03 18:52:00,55.0,24.0,-100.00,NNE,13,2.0,4.0,30,-99.99,,,-99.99,,2013-05-04 01:52:00,
2013-05-03 19:00:00,54.0,25.0,-100.00,NW,324,1.0,2.0,33,-99.99,,,-99.99,,2013-05-04 02:00:00,
2013-05-03 19:42:00,54.0,25.0,-100.00,NW,324,1.0,2.0,33,-99.99,,,-99.99,,2013-05-04 02:42:00,
2013-05-03 19:52:00,54.0,25.0,-100.00,NW,324,1.0,2.0,33,-99.99,,,-99.99,,2013-05-04 02:52:00,
2013-05-03 20:00:00,50.0,24.0,-100.00,ESE,113,0.0,2.0,36,-99.99,,,-99.99,,2013-05-04 03:00:00,
2013-05-03 20:43:00,50.0,24.0,-100.00,ESE,113,0.0,2.0,36,-99.99,,,-99.99,,2013-05-04 03:43:00,
2013-05-03 20:53:00,50.0,24.0,-100.00,ESE,113,0.0,2.0,36,-99.99,,,-99.99,,2013-05-04 03:53:00,
2013-05-03 21:00:00,48.0,27.0,-100.00,ESE,102,0.0,1.0,44,-99.99,,,-99.99,,2013-05-04 04:00:00,
2013-05-03 22:00:00,47.0,30.0,-100.00,West,263,1.0,2.0,51,-99.99,,,-99.99,,2013-05-04 05:00:00,
2013-05-03 22:43:00,47.0,30.0,-100.00,West,263,1.0,2.0,51,-99.99,,,-99.99,,2013-05-04 05:43:00,
2013-05-03 22:52:00,47.0,30.0,-100.00,West,263,1.0,2.0,51,-99.99,,,-99.99,,2013-05-04 05:52:00,
2013-05-03 23:00:00,46.0,29.0,-100.00,NW,321,1.0,4.0,51,-99.99,,,0.00,,2013-05-04 06:00:00,
2013-05-03 23:42:00,46.0,29.0,-100.00,NW,321,1.0,4.0,51,-99.99,,,0.00,,2013-05-04 06:42:00,
2013-05-03 23:52:00,46.0,29.0,-100.00,NW,321,1.0,4.0,51,-99.99,,,0.00,,2013-05-04 06:52:00,